Time;durP1;ratioP1;P1;durP2;ratioP2;P2;SDS_P1;SDS_P2;PMS_P1;PMS_P2;Temp;Humidity;BMP_temperature;BMP_pressure;BME280_temperature;BME280_humidity;BME280_pressure;Samples;Min_cycle;Max_cycle;Signal;HPM_P1;HPM_P2
2021/10/22 00:02:21;;;;;;;4.22;1.65;;;8.40;74.50;;;;;;5033037;28;20037;-77
2021/10/22 00:04:47;;;;;;;2.00;1.80;;;8.50;74.10;;;;;;5034038;28;20021;-77
2021/10/22 00:07:14;;;;;;;1.88;1.52;;;8.50;74.10;;;;;;5034022;28;20025;-77
2021/10/22 00:09:39;;;;;;;2.53;1.60;;;8.60;73.60;;;;;;5028605;28;20017;-77
2021/10/22 00:12:05;;;;;;;2.50;1.60;;;8.60;73.10;;;;;;5012911;28;20173;-76
2021/10/22 00:14:31;;;;;;;2.95;1.80;;;8.60;73.00;;;;;;5014080;28;20033;-76
2021/10/22 00:16:57;;;;;;;3.00;1.40;;;8.60;72.90;;;;;;5014151;28;20108;-77
2021/10/22 00:19:22;;;;;;;3.80;1.85;;;8.60;72.70;;;;;;5012853;28;20026;-77
2021/10/22 00:21:48;;;;;;;3.53;3.15;;;8.60;72.10;;;;;;5012805;28;20054;-77
2021/10/22 00:24:14;;;;;;;2.17;1.42;;;8.60;72.10;;;;;;5018967;28;20060;-77
2021/10/22 00:26:39;;;;;;;2.33;1.55;;;8.70;71.50;;;;;;5032411;28;20032;-77
2021/10/22 00:29:05;;;;;;;2.20;1.55;;;8.70;71.80;;;;;;5032262;28;20478;-77
2021/10/22 00:31:31;;;;;;;3.47;1.95;;;8.70;71.50;;;;;;5033254;28;20036;-76
2021/10/22 00:33:57;;;;;;;1.42;1.33;;;8.70;71.40;;;;;;5033394;28;20111;-77
2021/10/22 00:36:23;;;;;;;4.25;1.70;;;8.60;71.40;;;;;;5032369;28;20415;-76
2021/10/22 00:38:50;;;;;;;3.72;1.48;;;8.60;71.50;;;;;;5032083;28;20021;-76
2021/10/22 00:41:17;;;;;;;3.58;1.50;;;8.60;71.20;;;;;;5032749;28;20030;-77
2021/10/22 00:43:44;;;;;;;4.13;1.33;;;8.60;71.50;;;;;;5032060;28;20028;-77
2021/10/22 00:46:10;;;;;;;3.38;1.70;;;8.60;71.60;;;;;;5032078;28;20032;-76
2021/10/22 00:48:38;;;;;;;1.65;1.55;;;8.60;72.20;;;;;;5032076;28;20025;-76
2021/10/22 00:51:05;;;;;;;5.00;1.80;;;8.60;71.80;;;;;;5033278;28;20025;-77
2021/10/22 00:53:36;;;;;;;2.33;1.33;;;8.60;71.70;;;;;;5033229;28;20033;-77
2021/10/22 00:56:04;;;;;;;3.30;1.30;;;8.70;71.50;;;;;;5033212;28;20026;-77
2021/10/22 00:58:30;;;;;;;3.35;1.30;;;8.70;71.10;;;;;;5030149;28;20021;-77
2021/10/22 01:00:56;;;;;;;2.22;1.65;;;8.70;71.40;;;;;;5032993;28;20507;-77
2021/10/22 01:03:22;;;;;;;2.95;1.38;;;8.70;70.80;;;;;;5033113;28;20208;-77
2021/10/22 01:05:48;;;;;;;3.40;1.50;;;8.70;70.70;;;;;;5031187;28;20555;-77
2021/10/22 01:08:13;;;;;;;3.80;1.35;;;8.70;70.70;;;;;;5031807;28;20072;-77
2021/10/22 01:10:40;;;;;;;2.65;1.55;;;8.70;70.70;;;;;;5031651;28;20026;-77
2021/10/22 01:13:08;;;;;;;4.82;1.67;;;8.70;71.10;;;;;;5031536;28;20049;-77
2021/10/22 01:15:35;;;;;;;5.95;1.83;;;8.70;71.10;;;;;;5032929;28;20025;-77
2021/10/22 01:18:02;;;;;;;4.63;3.45;;;8.70;71.60;;;;;;5031639;28;20026;-77
2021/10/22 01:20:28;;;;;;;3.83;1.63;;;8.70;71.80;;;;;;5031807;28;20163;-76
2021/10/22 01:22:54;;;;;;;4.65;1.90;;;8.70;72.50;;;;;;5031573;28;20105;-76
2021/10/22 01:25:24;;;;;;;2.03;1.30;;;8.60;72.20;;;;;;5031532;28;20022;-76
2021/10/22 01:27:51;;;;;;;2.25;1.52;;;8.60;71.90;;;;;;5032715;28;20025;-76
2021/10/22 01:30:19;;;;;;;5.05;2.03;;;8.60;72.40;;;;;;5023651;28;20025;-77
2021/10/22 01:32:46;;;;;;;5.60;1.67;;;8.60;73.60;;;;;;5031398;28;20360;-77
2021/10/22 01:35:12;;;;;;;3.60;1.80;;;8.60;73.00;;;;;;5031422;28;20457;-76
2021/10/22 01:37:38;;;;;;;5.20;1.85;;;8.60;73.00;;;;;;5031484;28;20091;-76
2021/10/22 01:40:06;;;;;;;5.85;2.17;;;8.50;73.20;;;;;;5032639;28;20017;-77
2021/10/22 01:42:33;;;;;;;5.03;1.83;;;8.50;73.70;;;;;;5032812;28;20442;-77
2021/10/22 01:44:58;;;;;;;2.97;1.75;;;8.50;74.00;;;;;;5030489;28;20398;-77
2021/10/22 01:47:24;;;;;;;5.85;1.63;;;8.50;73.60;;;;;;5023748;28;20104;-77
2021/10/22 01:49:51;;;;;;;3.13;1.70;;;8.60;73.00;;;;;;5012813;28;20026;-76
2021/10/22 01:52:17;;;;;;;2.40;1.45;;;8.60;73.50;;;;;;5012931;28;20022;-77
2021/10/22 01:54:43;;;;;;;6.30;1.40;;;8.70;72.80;;;;;;5011482;28;20037;-76
2021/10/22 01:57:10;;;;;;;4.47;1.52;;;8.90;71.50;;;;;;5012830;28;20022;-77
2021/10/22 01:59:37;;;;;;;2.25;1.30;;;9.00;71.40;;;;;;5024808;28;20037;-76
2021/10/22 02:02:03;;;;;;;1.40;1.08;;;9.10;71.60;;;;;;5032372;28;20064;-77
2021/10/22 02:04:30;;;;;;;5.43;1.38;;;9.00;71.10;;;;;;5031205;28;20064;-77
2021/10/22 02:06:55;;;;;;;1.40;1.25;;;9.10;70.10;;;;;;5031160;28;20115;-77
2021/10/22 02:09:21;;;;;;;4.93;1.80;;;9.10;70.60;;;;;;5031149;28;20065;-77
2021/10/22 02:11:47;;;;;;;3.75;1.92;;;9.10;70.80;;;;;;5032420;28;20116;-77
2021/10/22 02:14:15;;;;;;;4.05;1.50;;;9.10;71.20;;;;;;5031040;28;20116;-76
2021/10/22 02:16:44;;;;;;;2.15;1.23;;;9.10;71.20;;;;;;5032671;28;20013;-77
2021/10/22 02:19:10;;;;;;;8.18;1.48;;;9.10;71.50;;;;;;5035957;28;20033;-76
2021/10/22 02:21:36;;;;;;;3.65;1.33;;;9.00;72.10;;;;;;5036118;28;20032;-77
2021/10/22 02:24:03;;;;;;;2.50;1.67;;;8.90;73.10;;;;;;5035965;28;20025;-77
2021/10/22 02:26:28;;;;;;;2.30;1.52;;;8.90;73.60;;;;;;5030740;28;20037;-77
2021/10/22 02:28:54;;;;;;;4.53;1.20;;;8.80;74.10;;;;;;5016044;28;20380;-77
2021/10/22 02:31:20;;;;;;;1.30;1.20;;;8.80;75.30;;;;;;5014818;28;20053;-77
2021/10/22 02:33:46;;;;;;;2.03;1.50;;;8.80;76.10;;;;;;5015924;28;20052;-76
2021/10/22 02:36:12;;;;;;;4.65;1.60;;;8.80;77.00;;;;;;5014719;28;20467;-77
2021/10/22 02:38:38;;;;;;;3.78;1.40;;;8.70;78.20;;;;;;5014597;28;20033;-76
2021/10/22 02:41:04;;;;;;;2.13;1.45;;;8.80;80.20;;;;;;5015886;28;20153;-77
2021/10/22 02:43:30;;;;;;;1.88;1.42;;;8.70;81.50;;;;;;5020579;28;20490;-77
2021/10/22 02:45:56;;;;;;;2.95;1.35;;;8.70;82.10;;;;;;5034285;28;20124;-77
2021/10/22 02:48:22;;;;;;;1.60;1.48;;;8.60;83.60;;;;;;5035516;28;20446;-77
2021/10/22 02:50:48;;;;;;;2.72;1.20;;;8.60;85.30;;;;;;5034227;28;20075;-77
2021/10/22 02:53:13;;;;;;;2.47;1.35;;;8.50;86.60;;;;;;5035394;28;20041;-77
2021/10/22 02:55:39;;;;;;;1.77;1.10;;;8.50;87.90;;;;;;5035323;28;20071;-77
2021/10/22 02:58:05;;;;;;;1.10;1.02;;;8.50;89.10;;;;;;5022033;28;20038;-76
2021/10/22 03:00:30;;;;;;;1.20;1.10;;;8.40;90.10;;;;;;5023577;28;20018;-76
2021/10/22 03:02:56;;;;;;;2.25;1.30;;;8.40;91.50;;;;;;5014206;28;20153;-76
2021/10/22 03:05:22;;;;;;;1.75;1.38;;;8.30;93.30;;;;;;5015540;28;20029;-76
2021/10/22 03:07:48;;;;;;;1.20;1.05;;;8.20;94.10;;;;;;5016961;28;20483;-77
2021/10/22 03:10:14;;;;;;;2.28;1.10;;;8.10;94.40;;;;;;5014030;28;20383;-76
2021/10/22 03:12:39;;;;;;;1.58;1.08;;;8.00;94.40;;;;;;5015349;28;20022;-76
2021/10/22 03:15:07;;;;;;;1.98;1.30;;;8.00;94.70;;;;;;5027453;28;20033;-76
2021/10/22 03:17:33;;;;;;;0.95;0.95;;;7.90;95.20;;;;;;5035071;28;20035;-76
2021/10/22 03:19:58;;;;;;;1.25;1.13;;;7.90;95.60;;;;;;5034871;28;20391;-76
2021/10/22 03:22:24;;;;;;;2.08;1.15;;;7.80;96.70;;;;;;5033705;28;20028;-76
2021/10/22 03:24:51;;;;;;;1.13;1.00;;;7.80;95.80;;;;;;5032699;28;20483;-77
2021/10/22 03:27:20;;;;;;;2.83;1.25;;;7.70;96.80;;;;;;5033623;28;20033;-76
2021/10/22 03:29:46;;;;;;;2.30;1.00;;;7.60;97.10;;;;;;5032909;28;20040;-77
2021/10/22 03:32:11;;;;;;;2.75;1.25;;;7.50;97.90;;;;;;5033487;28;20044;-76
2021/10/22 03:34:37;;;;;;;3.13;1.33;;;7.50;98.50;;;;;;5034581;28;20490;-76
2021/10/22 03:37:03;;;;;;;5.13;1.80;;;7.50;99.10;;;;;;5034659;28;20030;-76
2021/10/22 03:39:29;;;;;;;1.35;1.13;;;7.40;99.60;;;;;;5033305;28;20022;-76
2021/10/22 03:41:54;;;;;;;3.78;1.20;;;7.30;99.90;;;;;;5034545;28;20017;-77
2021/10/22 03:44:20;;;;;;;1.55;1.42;;;7.20;99.90;;;;;;5031577;28;20038;-76
2021/10/22 03:46:46;;;;;;;5.38;1.65;;;7.10;99.90;;;;;;5034347;28;20040;-77
2021/10/22 03:49:11;;;;;;;2.38;1.90;;;6.90;99.90;;;;;;5034383;28;20477;-77
2021/10/22 03:51:37;;;;;;;2.90;1.23;;;6.90;99.90;;;;;;5034377;28;20430;-76
2021/10/22 03:54:03;;;;;;;3.60;1.75;;;6.80;99.90;;;;;;5034228;28;20043;-76
2021/10/22 03:56:29;;;;;;;4.22;1.73;;;6.70;99.90;;;;;;5032737;28;20394;-76
2021/10/22 03:58:55;;;;;;;4.47;1.65;;;6.70;99.90;;;;;;5013460;28;20088;-76
2021/10/22 04:01:21;;;;;;;3.53;2.05;;;6.60;99.90;;;;;;5013153;28;20030;-77
2021/10/22 04:03:47;;;;;;;2.83;1.58;;;6.50;99.90;;;;;;5013101;28;20064;-76
2021/10/22 04:06:12;;;;;;;3.63;1.60;;;6.40;99.90;;;;;;5014437;28;20053;-77
2021/10/22 04:08:38;;;;;;;6.32;2.03;;;6.40;99.90;;;;;;5012924;28;20386;-77
2021/10/22 04:11:04;;;;;;;5.38;1.90;;;6.30;99.90;;;;;;5014258;28;20053;-76
2021/10/22 04:13:30;;;;;;;5.10;1.83;;;6.30;99.90;;;;;;5017848;28;20088;-76
2021/10/22 04:15:56;;;;;;;5.50;2.10;;;6.20;99.90;;;;;;5016114;28;20124;-76
2021/10/22 04:18:22;;;;;;;3.80;1.95;;;6.20;99.90;;;;;;5032633;28;20510;-76
2021/10/22 04:20:47;;;;;;;2.65;1.85;;;6.10;99.90;;;;;;5032500;28;20022;-76
2021/10/22 04:23:13;;;;;;;4.15;1.85;;;6.10;99.90;;;;;;5033804;28;20092;-77
2021/10/22 04:25:40;;;;;;;7.40;2.45;;;6.00;99.90;;;;;;5032323;28;20014;-77
2021/10/22 04:28:06;;;;;;;5.13;1.95;;;6.00;99.90;;;;;;5032412;28;20551;-77
2021/10/22 04:30:32;;;;;;;5.65;2.03;;;5.90;99.90;;;;;;5032318;28;20061;-77
2021/10/22 04:32:57;;;;;;;6.00;2.10;;;5.90;99.90;;;;;;5030328;28;20602;-77
2021/10/22 04:35:23;;;;;;;3.67;2.00;;;5.80;99.90;;;;;;5031971;28;20025;-76
2021/10/22 04:40:35;;;;;;;9.50;2.92;;;5.70;99.90;;;;;;5032418;28;20480;-77
2021/10/22 04:43:09;;;;;;;5.43;2.40;;;5.60;99.90;;;;;;5032629;28;20356;-76
2021/10/22 04:45:37;;;;;;;4.65;2.40;;;5.60;99.90;;;;;;5031904;28;20021;-76
2021/10/22 04:48:05;;;;;;;4.45;1.90;;;5.50;99.90;;;;;;5031527;28;20106;-76
2021/10/22 04:50:31;;;;;;;4.38;2.05;;;5.50;99.90;;;;;;5031839;28;20021;-76
2021/10/22 04:52:57;;;;;;;3.85;2.28;;;5.40;99.90;;;;;;5031471;28;20021;-77
2021/10/22 04:55:25;;;;;;;3.85;2.35;;;5.30;99.90;;;;;;5031320;28;20022;-76
2021/10/22 04:57:52;;;;;;;7.80;3.55;;;5.20;99.90;;;;;;5031140;28;20021;-76
2021/10/22 05:00:19;;;;;;;5.85;2.40;;;5.20;99.90;;;;;;5029987;28;20391;-75
2021/10/22 05:02:45;;;;;;;3.70;2.13;;;5.10;99.90;;;;;;5031464;28;20491;-75
2021/10/22 05:05:10;;;;;;;6.75;2.95;;;5.10;99.90;;;;;;5031536;28;20036;-76
2021/10/22 05:07:36;;;;;;;2.40;2.10;;;5.10;99.90;;;;;;5031531;28;20026;-76
2021/10/22 05:10:03;;;;;;;6.68;2.97;;;5.00;99.90;;;;;;5031598;28;20029;-76
2021/10/22 05:12:29;;;;;;;7.93;2.35;;;5.00;99.90;;;;;;5031253;28;20025;-76
2021/10/22 05:14:54;;;;;;;3.05;2.00;;;4.90;99.90;;;;;;5031432;28;20091;-76
2021/10/22 05:17:20;;;;;;;7.13;2.15;;;4.90;99.90;;;;;;5031656;28;20116;-76
2021/10/22 05:19:46;;;;;;;6.82;2.47;;;4.80;99.90;;;;;;5033059;28;20025;-76
2021/10/22 05:22:12;;;;;;;9.68;3.35;;;4.80;99.90;;;;;;5032903;28;20467;-77
2021/10/22 05:24:37;;;;;;;3.70;2.60;;;4.70;99.90;;;;;;5031581;28;20522;-75
2021/10/22 05:27:03;;;;;;;4.95;2.85;;;4.70;99.90;;;;;;5015833;28;20026;-77
2021/10/22 05:29:29;;;;;;;7.38;2.47;;;4.70;99.90;;;;;;5023696;28;20041;-75
2021/10/22 05:31:54;;;;;;;4.97;2.20;;;4.70;99.90;;;;;;5031554;28;20190;-76
2021/10/22 05:34:21;;;;;;;4.93;2.60;;;4.70;99.90;;;;;;5031438;28;20034;-76
2021/10/22 05:36:51;;;;;;;6.93;3.35;;;4.70;99.90;;;;;;5031334;28;20574;-76
2021/10/22 05:39:19;;;;;;;6.32;3.70;;;4.60;99.90;;;;;;5032759;28;20025;-76
2021/10/22 05:41:48;;;;;;;5.82;3.33;;;4.70;99.90;;;;;;5028722;28;20476;-76
2021/10/22 05:44:18;;;;;;;4.97;3.10;;;4.60;99.90;;;;;;5031395;28;20116;-76
2021/10/22 05:46:45;;;;;;;7.90;3.72;;;4.60;99.90;;;;;;5031347;28;20022;-76
2021/10/22 05:49:11;;;;;;;7.55;2.97;;;4.70;99.90;;;;;;5032539;28;20022;-76
2021/10/22 05:51:37;;;;;;;5.85;2.63;;;4.70;99.90;;;;;;5032896;28;20036;-76
2021/10/22 05:54:03;;;;;;;10.52;3.40;;;4.80;99.90;;;;;;5029673;28;20032;-76
2021/10/22 05:56:29;;;;;;;8.18;3.13;;;4.80;99.90;;;;;;5028975;28;20022;-76
2021/10/22 05:58:55;;;;;;;11.57;4.88;;;4.80;99.90;;;;;;5026027;28;20112;-76
2021/10/22 06:01:22;;;;;;;7.90;3.97;;;4.80;99.90;;;;;;5025236;28;20029;-76
2021/10/22 06:03:47;;;;;;;7.25;3.88;;;4.80;99.90;;;;;;5023545;28;20022;-76
2021/10/22 06:06:14;;;;;;;10.88;3.63;;;4.80;99.90;;;;;;5036399;28;20095;-76
2021/10/22 06:08:40;;;;;;;8.80;4.00;;;4.70;99.90;;;;;;5034961;28;20025;-76
2021/10/22 06:11:11;;;;;;;11.13;4.85;;;4.70;99.90;;;;;;5035637;28;20459;-76
2021/10/22 06:13:42;;;;;;;14.18;5.88;;;4.70;99.90;;;;;;5036215;28;20128;-76
2021/10/22 06:16:09;;;;;;;12.70;5.90;;;4.70;99.90;;;;;;5036189;28;20025;-76
2021/10/22 06:18:38;;;;;;;11.63;4.75;;;4.80;99.90;;;;;;5034519;28;20021;-76
2021/10/22 06:21:07;;;;;;;10.93;4.35;;;4.90;99.90;;;;;;5034796;28;20025;-77
2021/10/22 06:26:17;;;;;;;11.18;4.57;;;5.10;99.90;;;;;;5033548;28;20036;-76
2021/10/22 06:28:43;;;;;;;12.45;5.03;;;5.20;99.90;;;;;;5034582;28;20120;-75
2021/10/22 06:31:14;;;;;;;13.45;5.53;;;5.30;99.90;;;;;;5034638;28;20036;-74
2021/10/22 06:33:40;;;;;;;11.55;5.25;;;5.50;99.90;;;;;;5032644;28;20487;-76
2021/10/22 06:36:07;;;;;;;15.75;4.63;;;5.60;99.90;;;;;;5031736;28;20022;-76
2021/10/22 06:38:33;;;;;;;14.82;4.97;;;5.70;99.90;;;;;;5023668;28;20100;-76
2021/10/22 06:41:00;;;;;;;11.10;4.38;;;5.90;99.90;;;;;;5024095;28;20034;-75
2021/10/22 06:43:26;;;;;;;11.02;3.65;;;6.00;99.90;;;;;;5023174;28;20022;-76
2021/10/22 06:45:52;;;;;;;7.68;3.72;;;6.10;99.90;;;;;;5026892;28;20036;-76
2021/10/22 06:48:19;;;;;;;7.53;3.80;;;6.30;99.90;;;;;;5030902;28;20044;-75
2021/10/22 06:50:46;;;;;;;9.75;3.88;;;6.40;99.90;;;;;;5035480;28;20092;-76
2021/10/22 06:53:12;;;;;;;6.50;3.65;;;6.60;99.90;;;;;;5034171;28;20053;-74
2021/10/22 06:55:39;;;;;;;7.90;3.17;;;6.70;98.20;;;;;;5034105;28;20091;-75
2021/10/22 06:58:06;;;;;;;7.70;2.72;;;6.80;96.50;;;;;;5035365;28;20025;-75
2021/10/22 07:00:34;;;;;;;8.07;2.90;;;6.90;94.80;;;;;;5033644;28;20525;-75
2021/10/22 07:02:59;;;;;;;9.43;3.05;;;7.00;94.00;;;;;;5033568;28;20037;-76
2021/10/22 07:07:56;;;;;;;3.95;2.28;;;7.10;90.20;;;;;;5029402;28;20479;-74
2021/10/22 07:10:22;;;;;;;6.88;3.08;;;7.20;88.10;;;;;;5034210;28;20029;-76
2021/10/22 07:12:49;;;;;;;3.90;2.45;;;7.20;86.10;;;;;;5033691;28;20021;-76
2021/10/22 07:15:15;;;;;;;9.30;2.67;;;7.30;85.60;;;;;;5026458;28;20046;-74
2021/10/22 07:17:42;;;;;;;9.57;3.10;;;7.40;84.90;;;;;;5029775;28;20100;-74
2021/10/22 07:20:11;;;;;;;4.70;2.42;;;7.50;84.60;;;;;;5030563;28;20033;-77
2021/10/22 07:22:45;;;;;;;5.22;2.72;;;7.50;83.20;;;;;;5032985;28;20444;-76
2021/10/22 07:25:11;;;;;;;9.52;3.00;;;7.50;82.30;;;;;;5031441;28;20041;-76
2021/10/22 07:27:37;;;;;;;7.25;2.58;;;7.60;83.00;;;;;;5031344;28;20028;-76
2021/10/22 07:30:03;;;;;;;10.63;3.35;;;7.60;83.60;;;;;;5031043;28;20044;-76
2021/10/22 07:32:29;;;;;;;8.65;2.90;;;7.60;80.70;;;;;;5031266;28;20427;-76
2021/10/22 07:34:55;;;;;;;5.60;2.58;;;7.70;80.80;;;;;;5030853;28;20041;-76
2021/10/22 07:37:20;;;;;;;6.20;2.63;;;7.80;81.30;;;;;;5030373;28;20021;-76
2021/10/22 07:39:46;;;;;;;3.67;2.53;;;7.70;79.30;;;;;;5030482;28;20026;-76
2021/10/22 07:42:12;;;;;;;4.60;2.90;;;7.70;77.30;;;;;;5028241;28;20020;-76
2021/10/22 07:44:37;;;;;;;5.53;2.40;;;7.80;77.30;;;;;;5030529;28;20037;-75
2021/10/22 07:47:04;;;;;;;5.07;2.60;;;7.80;77.00;;;;;;5030918;28;20505;-76
2021/10/22 07:49:29;;;;;;;9.32;3.40;;;8.00;77.70;;;;;;5031817;28;20033;-76
2021/10/22 07:51:55;;;;;;;8.95;3.20;;;7.90;74.70;;;;;;5030996;28;20037;-76
2021/10/22 07:54:21;;;;;;;4.75;2.35;;;7.90;74.40;;;;;;5023774;28;20040;-76
2021/10/22 07:56:46;;;;;;;2.85;2.20;;;7.90;73.70;;;;;;5031870;28;20491;-75
2021/10/22 07:59:13;;;;;;;5.03;2.88;;;7.90;72.30;;;;;;5030624;28;20109;-76
2021/10/22 08:01:39;;;;;;;5.70;2.85;;;8.00;72.50;;;;;;5029860;28;20041;-76
2021/10/22 08:04:05;;;;;;;7.45;3.20;;;8.00;72.10;;;;;;5030394;28;20033;-76
2021/10/22 08:06:32;;;;;;;10.68;3.13;;;8.20;73.00;;;;;;5028096;28;20034;-76
2021/10/22 08:08:57;;;;;;;16.52;3.60;;;8.30;72.70;;;;;;5030286;28;20035;-76
2021/10/22 08:11:23;;;;;;;3.88;2.67;;;8.40;71.80;;;;;;5029783;28;20450;-76
2021/10/22 08:13:49;;;;;;;4.97;2.30;;;8.50;71.80;;;;;;5029958;28;20107;-76
2021/10/22 08:16:17;;;;;;;6.40;2.92;;;8.40;68.80;;;;;;5032287;28;20045;-76
2021/10/22 08:18:43;;;;;;;5.80;2.55;;;8.40;68.90;;;;;;5019678;28;20068;-77
2021/10/22 08:21:22;;;;;;;3.65;2.60;;;8.50;69.20;;;;;;5021905;28;20025;-75
2021/10/22 08:23:49;;;;;;;5.22;2.63;;;8.50;69.50;;;;;;5023687;28;20021;-76
2021/10/22 08:26:16;;;;;;;6.13;3.88;;;8.50;69.10;;;;;;5023523;28;20061;-76
2021/10/22 08:28:43;;;;;;;7.55;3.38;;;8.50;69.70;;;;;;5020150;28;20032;-76
2021/10/22 08:31:08;;;;;;;5.75;3.33;;;8.40;69.50;;;;;;5020556;28;20037;-75
2021/10/22 08:33:34;;;;;;;7.90;4.88;;;8.30;70.40;;;;;;5019475;28;20107;-76
2021/10/22 08:36:01;;;;;;;9.25;4.38;;;8.50;71.20;;;;;;5018826;28;20030;-75
2021/10/22 08:38:27;;;;;;;8.52;3.92;;;8.60;70.70;;;;;;5027759;28;20026;-75
2021/10/22 08:40:54;;;;;;;9.75;4.38;;;8.70;70.40;;;;;;5031716;28;20467;-76
2021/10/22 08:43:21;;;;;;;10.50;4.53;;;8.80;69.60;;;;;;5016503;28;20021;-75
2021/10/22 08:45:48;;;;;;;6.63;4.00;;;8.90;70.10;;;;;;5027539;28;20037;-75
2021/10/22 08:48:14;;;;;;;8.93;4.57;;;9.00;69.70;;;;;;5029479;28;20110;-76
2021/10/22 08:50:39;;;;;;;9.95;3.75;;;9.10;67.60;;;;;;5025256;28;20542;-75
2021/10/22 08:53:05;;;;;;;8.68;3.33;;;9.20;67.90;;;;;;5025271;28;20403;-76
2021/10/22 08:55:31;;;;;;;4.93;3.40;;;9.20;66.70;;;;;;5015425;28;20136;-77
2021/10/22 08:57:57;;;;;;;9.18;3.75;;;9.30;66.10;;;;;;5012578;28;20149;-75
2021/10/22 09:00:24;;;;;;;8.27;3.22;;;9.30;64.40;;;;;;5029912;28;20111;-76
2021/10/22 09:03:06;;;;;;;4.90;3.40;;;9.40;63.60;;;;;;5028002;28;20365;-75
2021/10/22 09:05:31;;;;;;;7.90;3.80;;;9.30;63.10;;;;;;5029892;28;20048;-75
2021/10/22 09:08:05;;;;;;;9.15;3.50;;;9.30;63.80;;;;;;5028454;28;20107;-77
2021/10/22 09:10:33;;;;;;;5.63;3.53;;;9.20;64.00;;;;;;5029672;28;20079;-75
2021/10/22 09:13:02;;;;;;;4.55;3.08;;;9.20;64.60;;;;;;5010218;28;20026;-76
2021/10/22 09:15:36;;;;;;;5.88;3.13;;;8.90;63.80;;;;;;5026176;28;20556;-76
2021/10/22 09:18:13;;;;;;;6.85;3.25;;;8.90;64.50;;;;;;5031494;28;20025;-74
2021/10/22 09:20:59;;;;;;;7.65;3.30;;;8.70;65.20;;;;;;5028139;28;20425;-76
2021/10/22 09:23:36;;;;;;;11.80;4.57;;;8.70;66.30;;;;;;5027460;28;20032;-74
2021/10/22 09:26:14;;;;;;;7.53;3.28;;;8.90;66.30;;;;;;5029193;28;20070;-74
2021/10/22 09:28:40;;;;;;;6.10;2.80;;;9.10;66.00;;;;;;5027352;28;20108;-75
2021/10/22 09:31:13;;;;;;;11.15;3.25;;;9.20;62.90;;;;;;5030917;28;20040;-73
2021/10/22 09:33:52;;;;;;;4.03;2.65;;;9.30;61.60;;;;;;5028519;28;20047;-74
2021/10/22 09:36:37;;;;;;;6.18;3.00;;;9.30;61.30;;;;;;5028818;28;20029;-74
2021/10/22 09:39:19;;;;;;;4.85;3.10;;;9.30;60.10;;;;;;5013716;28;20026;-74
2021/10/22 09:41:56;;;;;;;10.02;2.25;;;9.50;60.10;;;;;;5008467;28;20049;-73
2021/10/22 09:44:29;;;;;;;3.58;1.70;;;9.50;58.20;;;;;;5007705;28;20033;-73
2021/10/22 09:47:04;;;;;;;5.25;2.35;;;9.50;57.40;;;;;;5008079;28;20026;-74
2021/10/22 09:49:31;;;;;;;4.90;1.95;;;9.50;57.10;;;;;;5008208;28;20022;-73
2021/10/22 09:52:00;;;;;;;4.30;1.83;;;9.50;56.10;;;;;;5011055;28;20025;-73
2021/10/22 09:54:31;;;;;;;10.82;2.08;;;9.60;55.60;;;;;;5026982;28;20075;-73
2021/10/22 09:56:58;;;;;;;8.75;2.40;;;9.60;56.10;;;;;;5004763;28;20483;-74
2021/10/22 09:59:27;;;;;;;4.72;1.77;;;9.70;56.80;;;;;;5008606;28;20057;-74
2021/10/22 10:01:57;;;;;;;5.60;2.10;;;9.80;55.90;;;;;;5026632;28;20430;-75
2021/10/22 10:04:24;;;;;;;9.40;2.70;;;9.90;56.50;;;;;;5027578;28;20025;-75
2021/10/22 10:06:52;;;;;;;8.55;2.60;;;10.00;56.00;;;;;;5029193;28;20025;-75
2021/10/22 10:09:19;;;;;;;7.72;2.20;;;10.00;55.10;;;;;;5025750;28;20432;-75
2021/10/22 10:11:46;;;;;;;10.85;2.53;;;10.00;54.70;;;;;;5028921;28;20600;-75
2021/10/22 10:14:14;;;;;;;9.23;2.17;;;10.10;54.40;;;;;;5028554;28;20446;-75
2021/10/22 10:16:40;;;;;;;6.72;2.33;;;10.10;54.20;;;;;;5029296;28;20033;-75
2021/10/22 10:19:28;;;;;;;6.40;1.95;;;10.20;54.20;;;;;;5029889;28;20067;-75
2021/10/22 10:22:02;;;;;;;7.07;2.22;;;10.20;53.50;;;;;;5028854;28;20395;-74
2021/10/22 10:24:38;;;;;;;8.18;2.15;;;10.30;52.80;;;;;;5025141;28;20113;-74
2021/10/22 10:27:11;;;;;;;5.07;1.80;;;10.30;52.10;;;;;;5012270;28;20056;-74
2021/10/22 10:29:39;;;;;;;7.80;2.05;;;10.20;52.00;;;;;;5009434;28;20032;-75
2021/10/22 10:32:14;;;;;;;7.95;2.88;;;10.30;52.60;;;;;;5010939;28;20020;-75
2021/10/22 10:35:12;;;;;;;5.65;1.70;;;10.40;52.90;;;;;;5029036;28;20505;-73
2021/10/22 10:37:54;;;;;;;4.50;1.73;;;10.50;53.30;;;;;;5028076;28;20042;-75
2021/10/22 10:40:26;;;;;;;2.65;1.83;;;10.60;52.30;;;;;;5013254;28;20109;-75
2021/10/22 10:42:59;;;;;;;6.68;1.55;;;10.60;51.50;;;;;;5015085;28;20034;-75
2021/10/22 10:45:25;;;;;;;5.47;2.08;;;10.60;51.00;;;;;;5011585;28;20235;-76
2021/10/22 10:47:54;;;;;;;6.80;2.25;;;10.70;51.10;;;;;;5005843;28;20531;-76
2021/10/22 10:50:40;;;;;;;7.38;2.47;;;10.70;51.50;;;;;;5018286;28;20044;-76
2021/10/22 10:53:31;;;;;;;6.57;2.47;;;10.70;50.90;;;;;;5004404;28;20479;-77
2021/10/22 10:55:57;;;;;;;3.28;1.55;;;10.70;50.80;;;;;;5004180;28;20515;-76
2021/10/22 10:58:24;;;;;;;4.57;1.83;;;10.60;50.90;;;;;;5024764;28;20075;-77
2021/10/22 11:01:07;;;;;;;3.35;1.60;;;10.70;50.70;;;;;;5021582;28;20053;-77
2021/10/22 11:03:44;;;;;;;1.92;1.40;;;10.60;49.70;;;;;;5010454;28;20104;-77
2021/10/22 11:06:12;;;;;;;5.18;1.67;;;10.70;50.40;;;;;;4996973;28;20041;-76
2021/10/22 11:08:40;;;;;;;5.82;1.58;;;10.70;50.40;;;;;;5011763;28;20140;-77
2021/10/22 11:11:27;;;;;;;4.43;1.60;;;10.90;50.30;;;;;;5016059;28;20045;-77
2021/10/22 11:14:08;;;;;;;5.65;1.90;;;10.90;49.60;;;;;;5024241;28;20436;-77
2021/10/22 11:16:50;;;;;;;6.60;1.70;;;10.80;49.80;;;;;;5028983;28;20030;-77
2021/10/22 11:19:26;;;;;;;4.88;1.60;;;10.90;50.70;;;;;;5009116;28;20030;-77
2021/10/22 11:21:53;;;;;;;6.85;1.90;;;10.90;51.10;;;;;;5012823;28;20129;-77
2021/10/22 11:24:27;;;;;;;5.72;1.38;;;10.90;51.70;;;;;;5010935;28;20073;-77
2021/10/22 11:27:07;;;;;;;6.00;1.65;;;10.90;52.20;;;;;;5023518;28;20120;-77
2021/10/22 11:29:36;;;;;;;11.57;2.60;;;10.90;52.40;;;;;;5030620;28;20478;-77
2021/10/22 11:32:11;;;;;;;6.97;2.78;;;10.90;52.50;;;;;;5026218;28;20026;-77
2021/10/22 11:34:39;;;;;;;11.98;2.58;;;11.00;52.40;;;;;;5021269;28;21273;-77
2021/10/22 11:37:09;;;;;;;6.25;1.90;;;11.10;53.60;;;;;;5014580;28;20087;-80
2021/10/22 11:39:36;;;;;;;7.88;1.60;;;11.00;53.00;;;;;;5020389;28;20402;-80
2021/10/22 11:42:10;;;;;;;3.97;2.15;;;10.90;53.50;;;;;;5027536;28;20052;-79
2021/10/22 11:44:37;;;;;;;7.93;2.10;;;10.80;53.20;;;;;;5022702;28;20032;-79
2021/10/22 11:47:04;;;;;;;7.28;1.70;;;10.70;53.90;;;;;;5011945;28;20037;-79
2021/10/22 11:49:31;;;;;;;6.80;2.00;;;10.60;53.90;;;;;;5012358;28;20026;-79
2021/10/22 11:51:59;;;;;;;5.13;2.10;;;10.60;53.70;;;;;;5010781;28;20054;-79
2021/10/22 11:54:47;;;;;;;6.32;2.10;;;10.50;54.30;;;;;;5012076;28;20025;-80
2021/10/22 11:57:23;;;;;;;7.55;1.80;;;10.30;54.10;;;;;;5011024;28;20096;-79
2021/10/22 11:59:54;;;;;;;4.00;1.90;;;10.30;54.20;;;;;;5016343;28;20034;-80
2021/10/22 12:02:22;;;;;;;4.50;1.50;;;10.10;53.90;;;;;;5025973;28;20134;-80
2021/10/22 12:04:55;;;;;;;6.55;1.70;;;10.00;54.30;;;;;;5031292;28;20037;-79
2021/10/22 12:07:20;;;;;;;;;;;9.90;54.40;;;;;;5025752;28;20030;-79
2021/10/22 12:09:46;;;;;;;4.30;2.50;;;9.90;54.00;;;;;;5028643;28;19912;-80
2021/10/22 12:12:14;;;;;;;5.47;1.70;;;9.90;54.10;;;;;;5013167;28;20038;-79
2021/10/22 12:14:50;;;;;;;2.15;1.40;;;9.80;54.90;;;;;;5011427;28;20113;-79
2021/10/22 12:17:24;;;;;;;5.10;2.10;;;9.80;55.60;;;;;;5015673;28;20041;-80
2021/10/22 12:19:52;;;;;;;5.32;2.15;;;9.70;56.90;;;;;;5029824;28;20068;-81
2021/10/22 12:22:29;;;;;;;5.78;2.22;;;9.80;57.40;;;;;;5017357;28;20033;-80
2021/10/22 12:24:59;;;;;;;4.38;1.45;;;9.70;57.10;;;;;;5021390;28;20103;-83
2021/10/22 12:27:29;;;;;;;4.53;2.10;;;9.70;56.90;;;;;;5029091;28;20095;-80
2021/10/22 12:30:09;;;;;;;3.13;2.00;;;9.80;57.30;;;;;;5018940;28;20533;-80
2021/10/22 12:32:43;;;;;;;4.97;1.77;;;10.10;56.40;;;;;;5022650;28;20033;-82
2021/10/22 12:35:20;;;;;;;3.75;1.50;;;10.30;55.70;;;;;;5020716;28;20345;-80
2021/10/22 12:37:49;;;;;;;6.20;1.77;;;10.40;54.40;;;;;;5026551;28;20044;-80
2021/10/22 12:40:18;;;;;;;7.25;1.75;;;10.50;54.10;;;;;;5029400;28;20022;-80
2021/10/22 12:42:45;;;;;;;5.35;1.75;;;10.60;52.80;;;;;;5032550;28;20033;-80
2021/10/22 12:45:14;;;;;;;6.07;1.50;;;10.70;52.80;;;;;;5012961;28;20021;-79
2021/10/22 12:47:41;;;;;;;7.47;2.55;;;10.70;53.10;;;;;;5037971;28;20076;-80
2021/10/22 12:50:08;;;;;;;5.32;1.65;;;10.70;51.60;;;;;;5039767;28;20052;-79
2021/10/22 12:52:33;;;;;;;6.47;3.20;;;10.70;51.80;;;;;;5025288;28;20018;-79
2021/10/22 12:54:59;;;;;;;6.22;2.33;;;10.60;51.30;;;;;;5036246;28;20045;-79
2021/10/22 12:57:26;;;;;;;3.10;2.08;;;10.60;51.50;;;;;;5018195;28;20100;-79
2021/10/22 12:59:56;;;;;;;24.55;12.18;;;10.70;51.80;;;;;;5036294;28;20433;-78
2021/10/22 13:02:32;;;;;;;6.85;4.38;;;10.70;51.50;;;;;;5016314;28;20053;-78
2021/10/22 13:05:14;;;;;;;31.50;17.92;;;10.80;51.20;;;;;;5010314;28;20041;-78
2021/10/22 13:21:17;;;;;;;16.63;8.93;;;10.70;49.20;;;;;;5028586;28;20493;-80
2021/10/22 13:23:42;;;;;;;9.30;7.45;;;10.90;51.10;;;;;;5021302;28;20018;-80